sensor_id;sensor_type;location;lat;lon;timestamp;P1;durP1;ratioP1;P2;durP2;ratioP2
62362;SDS011;48396;48.426;1.500;2023-04-15T00:00:07;3.83;;;1.90;;
62362;SDS011;48396;48.426;1.500;2023-04-15T00:02:34;6.65;;;1.90;;
62362;SDS011;48396;48.426;1.500;2023-04-15T00:05:00;3.35;;;2.17;;
62362;SDS011;48396;48.426;1.500;2023-04-15T00:07:25;4.07;;;2.35;;
62362;SDS011;48396;48.426;1.500;2023-04-15T00:09:51;7.35;;;1.95;;
62362;SDS011;48396;48.426;1.500;2023-04-15T00:12:19;4.60;;;1.90;;
62362;SDS011;48396;48.426;1.500;2023-04-15T00:14:45;1.67;;;1.50;;
62362;SDS011;48396;48.426;1.500;2023-04-15T00:17:11;4.63;;;2.08;;
62362;SDS011;48396;48.426;1.500;2023-04-15T00:19:37;5.00;;;1.80;;
62362;SDS011;48396;48.426;1.500;2023-04-15T00:22:02;7.57;;;2.30;;
62362;SDS011;48396;48.426;1.500;2023-04-15T00:24:28;3.78;;;1.42;;
62362;SDS011;48396;48.426;1.500;2023-04-15T00:26:55;3.55;;;1.20;;
62362;SDS011;48396;48.426;1.500;2023-04-15T00:29:20;2.90;;;1.83;;
62362;SDS011;48396;48.426;1.500;2023-04-15T00:31:46;2.33;;;1.40;;
62362;SDS011;48396;48.426;1.500;2023-04-15T00:34:12;5.30;;;1.40;;
62362;SDS011;48396;48.426;1.500;2023-04-15T00:36:38;4.30;;;1.95;;
62362;SDS011;48396;48.426;1.500;2023-04-15T00:39:03;5.38;;;1.70;;
62362;SDS011;48396;48.426;1.500;2023-04-15T00:41:29;4.70;;;1.48;;
62362;SDS011;48396;48.426;1.500;2023-04-15T00:43:55;5.03;;;1.52;;
62362;SDS011;48396;48.426;1.500;2023-04-15T00:46:21;4.10;;;1.45;;
62362;SDS011;48396;48.426;1.500;2023-04-15T00:48:47;4.00;;;1.75;;
62362;SDS011;48396;48.426;1.500;2023-04-15T00:51:13;3.10;;;1.60;;
62362;SDS011;48396;48.426;1.500;2023-04-15T00:53:39;2.90;;;1.48;;
62362;SDS011;48396;48.426;1.500;2023-04-15T00:56:05;3.17;;;1.20;;
62362;SDS011;48396;48.426;1.500;2023-04-15T00:58:31;4.07;;;1.48;;
62362;SDS011;48396;48.426;1.500;2023-04-15T01:00:56;2.63;;;1.33;;
62362;SDS011;48396;48.426;1.500;2023-04-15T01:03:23;1.45;;;1.30;;
62362;SDS011;48396;48.426;1.500;2023-04-15T01:05:49;2.70;;;1.15;;
62362;SDS011;48396;48.426;1.500;2023-04-15T01:08:21;1.27;;;0.70;;
62362;SDS011;48396;48.426;1.500;2023-04-15T01:10:51;4.03;;;0.70;;
62362;SDS011;48396;48.426;1.500;2023-04-15T01:13:17;3.00;;;1.02;;
62362;SDS011;48396;48.426;1.500;2023-04-15T01:15:43;0.93;;;0.88;;
62362;SDS011;48396;48.426;1.500;2023-04-15T01:18:09;2.65;;;0.90;;
62362;SDS011;48396;48.426;1.500;2023-04-15T01:20:35;2.10;;;0.88;;
62362;SDS011;48396;48.426;1.500;2023-04-15T01:23:01;3.60;;;1.15;;
62362;SDS011;48396;48.426;1.500;2023-04-15T01:25:30;3.00;;;1.52;;
62362;SDS011;48396;48.426;1.500;2023-04-15T01:27:57;7.65;;;2.20;;
62362;SDS011;48396;48.426;1.500;2023-04-15T01:30:23;2.92;;;1.55;;
62362;SDS011;48396;48.426;1.500;2023-04-15T01:32:50;4.30;;;1.60;;
62362;SDS011;48396;48.426;1.500;2023-04-15T01:35:16;5.35;;;1.88;;
62362;SDS011;48396;48.426;1.500;2023-04-15T01:37:42;5.88;;;2.03;;
62362;SDS011;48396;48.426;1.500;2023-04-15T01:40:07;5.05;;;1.73;;
62362;SDS011;48396;48.426;1.500;2023-04-15T01:42:34;5.57;;;1.67;;
62362;SDS011;48396;48.426;1.500;2023-04-15T01:45:00;5.97;;;1.90;;
62362;SDS011;48396;48.426;1.500;2023-04-15T01:47:26;5.32;;;1.65;;
62362;SDS011;48396;48.426;1.500;2023-04-15T01:49:52;3.03;;;1.60;;
62362;SDS011;48396;48.426;1.500;2023-04-15T01:52:18;2.63;;;1.70;;
62362;SDS011;48396;48.426;1.500;2023-04-15T01:54:43;4.65;;;2.25;;
62362;SDS011;48396;48.426;1.500;2023-04-15T01:57:09;7.38;;;1.80;;
62362;SDS011;48396;48.426;1.500;2023-04-15T01:59:35;3.90;;;1.67;;
62362;SDS011;48396;48.426;1.500;2023-04-15T02:02:01;4.03;;;1.67;;
62362;SDS011;48396;48.426;1.500;2023-04-15T02:04:26;6.20;;;2.10;;
62362;SDS011;48396;48.426;1.500;2023-04-15T02:06:52;7.85;;;1.92;;
62362;SDS011;48396;48.426;1.500;2023-04-15T02:09:18;7.93;;;2.28;;
62362;SDS011;48396;48.426;1.500;2023-04-15T02:11:44;5.03;;;1.83;;
62362;SDS011;48396;48.426;1.500;2023-04-15T02:14:09;4.32;;;1.30;;
62362;SDS011;48396;48.426;1.500;2023-04-15T02:16:35;2.90;;;1.55;;
62362;SDS011;48396;48.426;1.500;2023-04-15T02:19:01;4.78;;;1.33;;
62362;SDS011;48396;48.426;1.500;2023-04-15T02:21:28;7.68;;;1.88;;
62362;SDS011;48396;48.426;1.500;2023-04-15T02:23:54;3.30;;;1.25;;
62362;SDS011;48396;48.426;1.500;2023-04-15T02:26:20;5.28;;;1.63;;
62362;SDS011;48396;48.426;1.500;2023-04-15T02:28:46;4.35;;;1.67;;
62362;SDS011;48396;48.426;1.500;2023-04-15T02:31:13;4.53;;;1.45;;
62362;SDS011;48396;48.426;1.500;2023-04-15T02:33:39;5.60;;;1.60;;
62362;SDS011;48396;48.426;1.500;2023-04-15T02:36:04;3.42;;;1.50;;
62362;SDS011;48396;48.426;1.500;2023-04-15T02:38:31;2.67;;;1.55;;
62362;SDS011;48396;48.426;1.500;2023-04-15T02:40:57;2.30;;;1.25;;
62362;SDS011;48396;48.426;1.500;2023-04-15T02:43:23;3.03;;;1.00;;
62362;SDS011;48396;48.426;1.500;2023-04-15T02:45:48;3.03;;;1.40;;
62362;SDS011;48396;48.426;1.500;2023-04-15T02:48:15;1.58;;;1.13;;
62362;SDS011;48396;48.426;1.500;2023-04-15T02:50:42;4.65;;;1.45;;
62362;SDS011;48396;48.426;1.500;2023-04-15T02:53:08;3.22;;;1.60;;
62362;SDS011;48396;48.426;1.500;2023-04-15T02:55:33;5.97;;;1.95;;
62362;SDS011;48396;48.426;1.500;2023-04-15T02:57:59;5.55;;;1.80;;
62362;SDS011;48396;48.426;1.500;2023-04-15T03:00:25;3.90;;;1.70;;
62362;SDS011;48396;48.426;1.500;2023-04-15T03:02:56;4.32;;;1.70;;
62362;SDS011;48396;48.426;1.500;2023-04-15T03:05:28;2.83;;;1.60;;
62362;SDS011;48396;48.426;1.500;2023-04-15T03:07:54;3.70;;;1.50;;
62362;SDS011;48396;48.426;1.500;2023-04-15T03:10:20;5.65;;;1.58;;
62362;SDS011;48396;48.426;1.500;2023-04-15T03:12:46;4.03;;;1.48;;
62362;SDS011;48396;48.426;1.500;2023-04-15T03:15:11;4.40;;;1.45;;
62362;SDS011;48396;48.426;1.500;2023-04-15T03:17:37;2.13;;;1.60;;
62362;SDS011;48396;48.426;1.500;2023-04-15T03:20:03;5.28;;;1.90;;
62362;SDS011;48396;48.426;1.500;2023-04-15T03:22:30;4.53;;;1.67;;
62362;SDS011;48396;48.426;1.500;2023-04-15T03:24:56;7.60;;;2.13;;
62362;SDS011;48396;48.426;1.500;2023-04-15T03:27:22;2.08;;;1.40;;
62362;SDS011;48396;48.426;1.500;2023-04-15T03:29:48;5.85;;;1.80;;
62362;SDS011;48396;48.426;1.500;2023-04-15T03:32:14;6.22;;;1.60;;
62362;SDS011;48396;48.426;1.500;2023-04-15T03:34:40;5.03;;;1.60;;
62362;SDS011;48396;48.426;1.500;2023-04-15T03:37:06;7.22;;;1.60;;
62362;SDS011;48396;48.426;1.500;2023-04-15T03:39:32;3.20;;;1.30;;
62362;SDS011;48396;48.426;1.500;2023-04-15T03:41:58;2.58;;;1.30;;
62362;SDS011;48396;48.426;1.500;2023-04-15T03:44:25;4.65;;;1.58;;
62362;SDS011;48396;48.426;1.500;2023-04-15T03:46:50;1.70;;;1.15;;
62362;SDS011;48396;48.426;1.500;2023-04-15T03:49:16;2.75;;;1.20;;
62362;SDS011;48396;48.426;1.500;2023-04-15T03:51:43;2.20;;;1.08;;
62362;SDS011;48396;48.426;1.500;2023-04-15T03:54:09;4.28;;;1.50;;
62362;SDS011;48396;48.426;1.500;2023-04-15T03:56:35;3.63;;;1.48;;
62362;SDS011;48396;48.426;1.500;2023-04-15T03:59:01;3.58;;;1.20;;
62362;SDS011;48396;48.426;1.500;2023-04-15T04:01:26;5.00;;;1.35;;
62362;SDS011;48396;48.426;1.500;2023-04-15T04:03:52;1.45;;;1.10;;
62362;SDS011;48396;48.426;1.500;2023-04-15T04:06:17;3.90;;;1.48;;
62362;SDS011;48396;48.426;1.500;2023-04-15T04:08:43;2.00;;;1.20;;
62362;SDS011;48396;48.426;1.500;2023-04-15T04:11:09;5.07;;;1.65;;
62362;SDS011;48396;48.426;1.500;2023-04-15T04:13:34;3.55;;;1.45;;
62362;SDS011;48396;48.426;1.500;2023-04-15T04:16:00;5.00;;;1.67;;
62362;SDS011;48396;48.426;1.500;2023-04-15T04:18:26;3.45;;;1.80;;
62362;SDS011;48396;48.426;1.500;2023-04-15T04:20:52;5.50;;;1.52;;
62362;SDS011;48396;48.426;1.500;2023-04-15T04:23:17;4.45;;;1.30;;
62362;SDS011;48396;48.426;1.500;2023-04-15T04:25:43;4.20;;;1.55;;
62362;SDS011;48396;48.426;1.500;2023-04-15T04:28:09;5.63;;;1.80;;
62362;SDS011;48396;48.426;1.500;2023-04-15T04:30:35;8.75;;;1.80;;
62362;SDS011;48396;48.426;1.500;2023-04-15T04:33:02;3.92;;;1.60;;
62362;SDS011;48396;48.426;1.500;2023-04-15T04:35:27;7.90;;;2.00;;
62362;SDS011;48396;48.426;1.500;2023-04-15T04:37:53;5.22;;;1.77;;
62362;SDS011;48396;48.426;1.500;2023-04-15T04:40:18;4.63;;;1.73;;
62362;SDS011;48396;48.426;1.500;2023-04-15T04:42:44;6.32;;;2.00;;
62362;SDS011;48396;48.426;1.500;2023-04-15T04:45:10;3.95;;;1.75;;
62362;SDS011;48396;48.426;1.500;2023-04-15T04:47:36;4.60;;;1.80;;
62362;SDS011;48396;48.426;1.500;2023-04-15T04:50:01;5.78;;;1.80;;
62362;SDS011;48396;48.426;1.500;2023-04-15T04:52:27;4.72;;;1.27;;
62362;SDS011;48396;48.426;1.500;2023-04-15T04:54:53;4.15;;;1.98;;
62362;SDS011;48396;48.426;1.500;2023-04-15T04:57:18;5.32;;;1.83;;
62362;SDS011;48396;48.426;1.500;2023-04-15T04:59:47;5.07;;;1.58;;
62362;SDS011;48396;48.426;1.500;2023-04-15T05:02:12;7.72;;;2.10;;
62362;SDS011;48396;48.426;1.500;2023-04-15T05:04:38;3.30;;;1.75;;
62362;SDS011;48396;48.426;1.500;2023-04-15T05:07:03;4.75;;;1.80;;
62362;SDS011;48396;48.426;1.500;2023-04-15T05:09:29;7.05;;;2.08;;
62362;SDS011;48396;48.426;1.500;2023-04-15T05:11:56;4.38;;;1.83;;
62362;SDS011;48396;48.426;1.500;2023-04-15T05:14:22;3.10;;;1.73;;
62362;SDS011;48396;48.426;1.500;2023-04-15T05:16:48;4.28;;;1.80;;
62362;SDS011;48396;48.426;1.500;2023-04-15T05:19:13;7.47;;;2.13;;
62362;SDS011;48396;48.426;1.500;2023-04-15T05:21:39;4.82;;;2.22;;
62362;SDS011;48396;48.426;1.500;2023-04-15T05:24:04;2.45;;;2.08;;
62362;SDS011;48396;48.426;1.500;2023-04-15T05:26:30;8.23;;;2.47;;
62362;SDS011;48396;48.426;1.500;2023-04-15T05:28:56;7.75;;;2.30;;
62362;SDS011;48396;48.426;1.500;2023-04-15T05:31:22;5.35;;;1.98;;
62362;SDS011;48396;48.426;1.500;2023-04-15T05:33:48;9.93;;;2.20;;
62362;SDS011;48396;48.426;1.500;2023-04-15T05:36:13;5.88;;;2.20;;
62362;SDS011;48396;48.426;1.500;2023-04-15T05:38:39;4.97;;;2.17;;
62362;SDS011;48396;48.426;1.500;2023-04-15T05:41:05;4.63;;;2.25;;
62362;SDS011;48396;48.426;1.500;2023-04-15T05:43:30;3.20;;;1.88;;
62362;SDS011;48396;48.426;1.500;2023-04-15T05:45:56;3.05;;;1.83;;
62362;SDS011;48396;48.426;1.500;2023-04-15T05:48:21;4.78;;;1.65;;
62362;SDS011;48396;48.426;1.500;2023-04-15T05:50:47;3.70;;;2.00;;
62362;SDS011;48396;48.426;1.500;2023-04-15T05:53:13;2.63;;;1.73;;
62362;SDS011;48396;48.426;1.500;2023-04-15T05:55:39;4.25;;;2.00;;
62362;SDS011;48396;48.426;1.500;2023-04-15T05:58:05;4.00;;;1.98;;
62362;SDS011;48396;48.426;1.500;2023-04-15T06:00:30;5.70;;;1.98;;
62362;SDS011;48396;48.426;1.500;2023-04-15T06:02:56;5.13;;;1.98;;
62362;SDS011;48396;48.426;1.500;2023-04-15T06:05:22;5.55;;;2.30;;
62362;SDS011;48396;48.426;1.500;2023-04-15T06:07:48;7.95;;;2.22;;
62362;SDS011;48396;48.426;1.500;2023-04-15T06:10:14;6.60;;;1.95;;
62362;SDS011;48396;48.426;1.500;2023-04-15T06:12:40;5.63;;;2.25;;
62362;SDS011;48396;48.426;1.500;2023-04-15T06:15:06;6.47;;;1.90;;
62362;SDS011;48396;48.426;1.500;2023-04-15T06:17:34;6.95;;;2.10;;
62362;SDS011;48396;48.426;1.500;2023-04-15T06:20:00;7.63;;;1.98;;
62362;SDS011;48396;48.426;1.500;2023-04-15T06:22:25;3.50;;;2.30;;
62362;SDS011;48396;48.426;1.500;2023-04-15T06:24:51;6.03;;;2.42;;
62362;SDS011;48396;48.426;1.500;2023-04-15T06:27:17;7.38;;;2.15;;
62362;SDS011;48396;48.426;1.500;2023-04-15T06:29:42;6.22;;;2.10;;
62362;SDS011;48396;48.426;1.500;2023-04-15T06:32:08;6.43;;;2.42;;
62362;SDS011;48396;48.426;1.500;2023-04-15T06:34:34;7.72;;;2.58;;
62362;SDS011;48396;48.426;1.500;2023-04-15T06:37:00;7.22;;;2.83;;
62362;SDS011;48396;48.426;1.500;2023-04-15T06:39:26;7.13;;;2.15;;
62362;SDS011;48396;48.426;1.500;2023-04-15T06:41:51;6.22;;;2.65;;
62362;SDS011;48396;48.426;1.500;2023-04-15T06:44:17;5.13;;;2.50;;
62362;SDS011;48396;48.426;1.500;2023-04-15T06:46:43;12.98;;;3.33;;
62362;SDS011;48396;48.426;1.500;2023-04-15T06:49:09;6.15;;;3.38;;
62362;SDS011;48396;48.426;1.500;2023-04-15T06:51:35;9.68;;;3.20;;
62362;SDS011;48396;48.426;1.500;2023-04-15T06:54:01;5.40;;;2.95;;
62362;SDS011;48396;48.426;1.500;2023-04-15T06:56:30;4.97;;;3.20;;
62362;SDS011;48396;48.426;1.500;2023-04-15T06:58:59;7.15;;;2.83;;
62362;SDS011;48396;48.426;1.500;2023-04-15T07:01:24;5.53;;;3.20;;
62362;SDS011;48396;48.426;1.500;2023-04-15T07:03:50;3.70;;;2.50;;
62362;SDS011;48396;48.426;1.500;2023-04-15T07:06:16;9.95;;;3.20;;
62362;SDS011;48396;48.426;1.500;2023-04-15T07:08:41;7.05;;;2.95;;
62362;SDS011;48396;48.426;1.500;2023-04-15T07:11:07;7.07;;;2.90;;
62362;SDS011;48396;48.426;1.500;2023-04-15T07:13:33;7.00;;;2.90;;
62362;SDS011;48396;48.426;1.500;2023-04-15T07:15:58;10.32;;;3.38;;
62362;SDS011;48396;48.426;1.500;2023-04-15T07:18:24;7.00;;;3.15;;
62362;SDS011;48396;48.426;1.500;2023-04-15T07:20:50;8.45;;;3.88;;
62362;SDS011;48396;48.426;1.500;2023-04-15T07:23:16;10.85;;;3.47;;
62362;SDS011;48396;48.426;1.500;2023-04-15T07:25:42;6.80;;;2.85;;
62362;SDS011;48396;48.426;1.500;2023-04-15T07:28:07;6.15;;;3.13;;
62362;SDS011;48396;48.426;1.500;2023-04-15T07:30:33;7.28;;;3.00;;
62362;SDS011;48396;48.426;1.500;2023-04-15T07:33:00;6.72;;;3.03;;
62362;SDS011;48396;48.426;1.500;2023-04-15T07:35:26;11.80;;;3.35;;
62362;SDS011;48396;48.426;1.500;2023-04-15T07:37:52;8.43;;;3.00;;
62362;SDS011;48396;48.426;1.500;2023-04-15T07:40:17;5.70;;;3.42;;
62362;SDS011;48396;48.426;1.500;2023-04-15T07:42:43;9.77;;;3.05;;
62362;SDS011;48396;48.426;1.500;2023-04-15T07:45:09;5.18;;;2.85;;
62362;SDS011;48396;48.426;1.500;2023-04-15T07:47:35;7.07;;;3.35;;
62362;SDS011;48396;48.426;1.500;2023-04-15T07:50:01;7.18;;;3.13;;
62362;SDS011;48396;48.426;1.500;2023-04-15T07:52:26;9.75;;;3.55;;
62362;SDS011;48396;48.426;1.500;2023-04-15T07:54:52;8.23;;;3.08;;
62362;SDS011;48396;48.426;1.500;2023-04-15T07:57:18;7.55;;;3.65;;
62362;SDS011;48396;48.426;1.500;2023-04-15T07:59:43;7.05;;;3.05;;
62362;SDS011;48396;48.426;1.500;2023-04-15T08:02:09;8.13;;;3.33;;
62362;SDS011;48396;48.426;1.500;2023-04-15T08:04:35;6.05;;;2.92;;
62362;SDS011;48396;48.426;1.500;2023-04-15T08:07:01;7.22;;;3.13;;
62362;SDS011;48396;48.426;1.500;2023-04-15T08:09:28;7.38;;;3.03;;
62362;SDS011;48396;48.426;1.500;2023-04-15T08:11:53;7.72;;;3.03;;
62362;SDS011;48396;48.426;1.500;2023-04-15T08:14:20;7.68;;;3.00;;
62362;SDS011;48396;48.426;1.500;2023-04-15T08:16:46;8.02;;;2.83;;
62362;SDS011;48396;48.426;1.500;2023-04-15T08:19:11;7.38;;;3.20;;
62362;SDS011;48396;48.426;1.500;2023-04-15T08:21:37;6.95;;;2.88;;
62362;SDS011;48396;48.426;1.500;2023-04-15T08:24:02;5.97;;;2.90;;
62362;SDS011;48396;48.426;1.500;2023-04-15T08:26:28;6.57;;;3.00;;
62362;SDS011;48396;48.426;1.500;2023-04-15T08:28:54;4.53;;;2.72;;
62362;SDS011;48396;48.426;1.500;2023-04-15T08:31:19;7.38;;;2.75;;
62362;SDS011;48396;48.426;1.500;2023-04-15T08:33:45;11.00;;;3.83;;
62362;SDS011;48396;48.426;1.500;2023-04-15T08:36:11;10.43;;;3.35;;
62362;SDS011;48396;48.426;1.500;2023-04-15T08:38:38;9.32;;;2.92;;
62362;SDS011;48396;48.426;1.500;2023-04-15T08:41:25;8.00;;;2.85;;
62362;SDS011;48396;48.426;1.500;2023-04-15T08:43:52;7.55;;;3.10;;
62362;SDS011;48396;48.426;1.500;2023-04-15T08:46:20;10.15;;;3.38;;
62362;SDS011;48396;48.426;1.500;2023-04-15T08:48:47;9.82;;;3.28;;
62362;SDS011;48396;48.426;1.500;2023-04-15T08:51:13;4.43;;;2.60;;
62362;SDS011;48396;48.426;1.500;2023-04-15T08:53:43;8.85;;;3.22;;
62362;SDS011;48396;48.426;1.500;2023-04-15T08:56:11;5.95;;;3.00;;
62362;SDS011;48396;48.426;1.500;2023-04-15T08:58:38;8.23;;;3.08;;
62362;SDS011;48396;48.426;1.500;2023-04-15T09:01:04;6.35;;;2.78;;
62362;SDS011;48396;48.426;1.500;2023-04-15T09:03:30;4.72;;;2.38;;
62362;SDS011;48396;48.426;1.500;2023-04-15T09:05:56;5.10;;;2.50;;
62362;SDS011;48396;48.426;1.500;2023-04-15T09:08:22;6.20;;;2.72;;
62362;SDS011;48396;48.426;1.500;2023-04-15T09:10:48;7.38;;;2.90;;
62362;SDS011;48396;48.426;1.500;2023-04-15T09:13:14;6.50;;;2.50;;
62362;SDS011;48396;48.426;1.500;2023-04-15T09:15:40;6.82;;;2.55;;
62362;SDS011;48396;48.426;1.500;2023-04-15T09:18:05;8.00;;;2.22;;
62362;SDS011;48396;48.426;1.500;2023-04-15T09:20:37;6.13;;;2.47;;
62362;SDS011;48396;48.426;1.500;2023-04-15T09:23:13;3.53;;;2.25;;
62362;SDS011;48396;48.426;1.500;2023-04-15T09:25:40;4.95;;;2.00;;
62362;SDS011;48396;48.426;1.500;2023-04-15T09:28:08;3.88;;;2.13;;
62362;SDS011;48396;48.426;1.500;2023-04-15T09:30:35;4.70;;;2.17;;
62362;SDS011;48396;48.426;1.500;2023-04-15T09:33:01;4.57;;;1.80;;
62362;SDS011;48396;48.426;1.500;2023-04-15T09:35:32;4.18;;;2.30;;
62362;SDS011;48396;48.426;1.500;2023-04-15T09:38:02;4.60;;;1.65;;
62362;SDS011;48396;48.426;1.500;2023-04-15T09:40:35;3.85;;;1.70;;
62362;SDS011;48396;48.426;1.500;2023-04-15T09:43:06;3.50;;;1.65;;
62362;SDS011;48396;48.426;1.500;2023-04-15T09:45:34;6.93;;;2.25;;
62362;SDS011;48396;48.426;1.500;2023-04-15T09:50:45;4.43;;;2.17;;
62362;SDS011;48396;48.426;1.500;2023-04-15T09:53:19;1.45;;;1.35;;
62362;SDS011;48396;48.426;1.500;2023-04-15T09:55:50;5.20;;;1.95;;
62362;SDS011;48396;48.426;1.500;2023-04-15T09:58:22;6.82;;;2.08;;
62362;SDS011;48396;48.426;1.500;2023-04-15T10:00:52;5.07;;;1.83;;
62362;SDS011;48396;48.426;1.500;2023-04-15T10:03:22;4.70;;;1.38;;
62362;SDS011;48396;48.426;1.500;2023-04-15T10:05:52;1.70;;;1.20;;
62362;SDS011;48396;48.426;1.500;2023-04-15T10:08:20;1.48;;;1.20;;
62362;SDS011;48396;48.426;1.500;2023-04-15T10:10:53;4.05;;;1.50;;
62362;SDS011;48396;48.426;1.500;2023-04-15T10:13:20;2.38;;;1.52;;
62362;SDS011;48396;48.426;1.500;2023-04-15T10:15:51;5.95;;;1.77;;
62362;SDS011;48396;48.426;1.500;2023-04-15T10:18:21;2.78;;;1.38;;
62362;SDS011;48396;48.426;1.500;2023-04-15T10:20:49;2.42;;;1.52;;
62362;SDS011;48396;48.426;1.500;2023-04-15T10:23:15;4.30;;;2.05;;
62362;SDS011;48396;48.426;1.500;2023-04-15T10:25:42;1.80;;;1.60;;
62362;SDS011;48396;48.426;1.500;2023-04-15T10:28:10;3.92;;;2.05;;
62362;SDS011;48396;48.426;1.500;2023-04-15T10:30:35;2.03;;;1.50;;
62362;SDS011;48396;48.426;1.500;2023-04-15T10:33:02;4.65;;;1.55;;
62362;SDS011;48396;48.426;1.500;2023-04-15T10:35:29;2.10;;;1.90;;
62362;SDS011;48396;48.426;1.500;2023-04-15T10:37:57;3.38;;;1.80;;
62362;SDS011;48396;48.426;1.500;2023-04-15T10:42:49;3.95;;;1.42;;
62362;SDS011;48396;48.426;1.500;2023-04-15T10:45:15;2.88;;;1.85;;
62362;SDS011;48396;48.426;1.500;2023-04-15T10:47:42;3.00;;;1.70;;
62362;SDS011;48396;48.426;1.500;2023-04-15T10:50:08;2.53;;;1.50;;
62362;SDS011;48396;48.426;1.500;2023-04-15T10:52:33;1.83;;;1.73;;
62362;SDS011;48396;48.426;1.500;2023-04-15T10:55:02;4.28;;;1.80;;
62362;SDS011;48396;48.426;1.500;2023-04-15T10:57:33;4.93;;;1.90;;
62362;SDS011;48396;48.426;1.500;2023-04-15T11:00:08;4.25;;;2.20;;
62362;SDS011;48396;48.426;1.500;2023-04-15T11:02:38;4.18;;;2.00;;
62362;SDS011;48396;48.426;1.500;2023-04-15T11:05:05;3.75;;;1.88;;
62362;SDS011;48396;48.426;1.500;2023-04-15T11:07:34;2.22;;;1.65;;
62362;SDS011;48396;48.426;1.500;2023-04-15T11:12:50;11.45;;;4.28;;
62362;SDS011;48396;48.426;1.500;2023-04-15T11:15:33;8.60;;;3.17;;
62362;SDS011;48396;48.426;1.500;2023-04-15T11:20:50;5.18;;;2.80;;
62362;SDS011;48396;48.426;1.500;2023-04-15T11:23:39;3.60;;;2.38;;
62362;SDS011;48396;48.426;1.500;2023-04-15T11:26:07;4.40;;;2.40;;
62362;SDS011;48396;48.426;1.500;2023-04-15T11:28:37;3.92;;;2.10;;
62362;SDS011;48396;48.426;1.500;2023-04-15T11:31:08;3.38;;;1.92;;
62362;SDS011;48396;48.426;1.500;2023-04-15T11:33:36;3.65;;;2.28;;
62362;SDS011;48396;48.426;1.500;2023-04-15T11:36:03;6.13;;;2.40;;
62362;SDS011;48396;48.426;1.500;2023-04-15T11:38:28;3.83;;;2.95;;
62362;SDS011;48396;48.426;1.500;2023-04-15T11:40:55;3.45;;;2.33;;
62362;SDS011;48396;48.426;1.500;2023-04-15T11:43:22;4.25;;;2.40;;
62362;SDS011;48396;48.426;1.500;2023-04-15T11:45:49;5.03;;;3.03;;
62362;SDS011;48396;48.426;1.500;2023-04-15T11:48:15;4.43;;;2.80;;
62362;SDS011;48396;48.426;1.500;2023-04-15T11:50:41;5.38;;;2.72;;
62362;SDS011;48396;48.426;1.500;2023-04-15T11:53:07;3.83;;;2.55;;
62362;SDS011;48396;48.426;1.500;2023-04-15T11:55:43;4.25;;;2.45;;
62362;SDS011;48396;48.426;1.500;2023-04-15T11:58:14;4.47;;;2.40;;
62362;SDS011;48396;48.426;1.500;2023-04-15T12:00:51;4.03;;;2.20;;
62362;SDS011;48396;48.426;1.500;2023-04-15T12:06:10;2.45;;;2.00;;
62362;SDS011;48396;48.426;1.500;2023-04-15T12:13:52;3.85;;;2.13;;
62362;SDS011;48396;48.426;1.500;2023-04-15T12:16:20;4.07;;;1.98;;
62362;SDS011;48396;48.426;1.500;2023-04-15T12:18:50;5.70;;;2.33;;
62362;SDS011;48396;48.426;1.500;2023-04-15T12:21:33;5.72;;;3.25;;
62362;SDS011;48396;48.426;1.500;2023-04-15T12:24:04;3.75;;;2.70;;
62362;SDS011;48396;48.426;1.500;2023-04-15T12:29:13;5.95;;;2.70;;
62362;SDS011;48396;48.426;1.500;2023-04-15T12:31:56;3.75;;;2.60;;
62362;SDS011;48396;48.426;1.500;2023-04-15T12:34:28;6.32;;;2.83;;
62362;SDS011;48396;48.426;1.500;2023-04-15T12:36:55;4.45;;;2.60;;
62362;SDS011;48396;48.426;1.500;2023-04-15T12:39:23;5.47;;;2.55;;
62362;SDS011;48396;48.426;1.500;2023-04-15T12:41:50;5.40;;;2.95;;
62362;SDS011;48396;48.426;1.500;2023-04-15T12:44:16;5.65;;;2.53;;
62362;SDS011;48396;48.426;1.500;2023-04-15T12:46:42;3.97;;;2.05;;
62362;SDS011;48396;48.426;1.500;2023-04-15T12:49:08;3.00;;;2.30;;
62362;SDS011;48396;48.426;1.500;2023-04-15T12:51:33;5.20;;;2.00;;
62362;SDS011;48396;48.426;1.500;2023-04-15T12:53:59;5.47;;;2.53;;
62362;SDS011;48396;48.426;1.500;2023-04-15T12:56:25;5.10;;;2.78;;
62362;SDS011;48396;48.426;1.500;2023-04-15T12:58:51;2.50;;;2.30;;
62362;SDS011;48396;48.426;1.500;2023-04-15T13:01:16;4.85;;;2.60;;
62362;SDS011;48396;48.426;1.500;2023-04-15T13:03:42;3.35;;;2.50;;
62362;SDS011;48396;48.426;1.500;2023-04-15T13:06:08;5.38;;;2.50;;
62362;SDS011;48396;48.426;1.500;2023-04-15T13:08:34;4.50;;;2.63;;
62362;SDS011;48396;48.426;1.500;2023-04-15T13:10:59;5.38;;;2.80;;
62362;SDS011;48396;48.426;1.500;2023-04-15T13:13:25;5.82;;;2.85;;
62362;SDS011;48396;48.426;1.500;2023-04-15T13:15:51;6.80;;;2.90;;
62362;SDS011;48396;48.426;1.500;2023-04-15T13:18:17;4.07;;;2.70;;
62362;SDS011;48396;48.426;1.500;2023-04-15T13:20:42;3.90;;;2.30;;
62362;SDS011;48396;48.426;1.500;2023-04-15T13:23:08;2.63;;;2.13;;
62362;SDS011;48396;48.426;1.500;2023-04-15T13:25:34;3.10;;;1.98;;
62362;SDS011;48396;48.426;1.500;2023-04-15T13:27:59;3.58;;;2.10;;
62362;SDS011;48396;48.426;1.500;2023-04-15T13:30:25;3.45;;;2.05;;
62362;SDS011;48396;48.426;1.500;2023-04-15T13:32:52;3.13;;;1.95;;
62362;SDS011;48396;48.426;1.500;2023-04-15T13:35:18;2.92;;;1.80;;
62362;SDS011;48396;48.426;1.500;2023-04-15T13:37:44;3.10;;;2.00;;
62362;SDS011;48396;48.426;1.500;2023-04-15T13:40:10;1.88;;;1.52;;
62362;SDS011;48396;48.426;1.500;2023-04-15T13:42:36;2.55;;;1.70;;
62362;SDS011;48396;48.426;1.500;2023-04-15T13:45:02;4.07;;;2.40;;
62362;SDS011;48396;48.426;1.500;2023-04-15T13:47:28;5.05;;;2.40;;
62362;SDS011;48396;48.426;1.500;2023-04-15T13:49:53;2.90;;;2.60;;
62362;SDS011;48396;48.426;1.500;2023-04-15T13:52:20;5.88;;;2.67;;
62362;SDS011;48396;48.426;1.500;2023-04-15T13:54:47;5.35;;;2.90;;
62362;SDS011;48396;48.426;1.500;2023-04-15T13:57:12;3.85;;;2.70;;
62362;SDS011;48396;48.426;1.500;2023-04-15T13:59:38;4.07;;;2.47;;
62362;SDS011;48396;48.426;1.500;2023-04-15T14:02:04;4.90;;;2.47;;
62362;SDS011;48396;48.426;1.500;2023-04-15T14:04:30;3.63;;;2.10;;
62362;SDS011;48396;48.426;1.500;2023-04-15T14:06:56;3.17;;;2.28;;
62362;SDS011;48396;48.426;1.500;2023-04-15T14:09:21;6.05;;;2.22;;
62362;SDS011;48396;48.426;1.500;2023-04-15T14:11:48;6.22;;;2.65;;
62362;SDS011;48396;48.426;1.500;2023-04-15T14:14:14;4.70;;;2.45;;
62362;SDS011;48396;48.426;1.500;2023-04-15T14:16:40;3.45;;;2.30;;
62362;SDS011;48396;48.426;1.500;2023-04-15T14:19:06;5.05;;;2.75;;
62362;SDS011;48396;48.426;1.500;2023-04-15T14:21:31;4.70;;;2.85;;
62362;SDS011;48396;48.426;1.500;2023-04-15T14:23:57;6.20;;;2.80;;
62362;SDS011;48396;48.426;1.500;2023-04-15T14:26:23;5.53;;;3.08;;
62362;SDS011;48396;48.426;1.500;2023-04-15T14:28:48;6.88;;;3.05;;
62362;SDS011;48396;48.426;1.500;2023-04-15T14:31:14;8.10;;;3.00;;
62362;SDS011;48396;48.426;1.500;2023-04-15T14:33:40;5.40;;;2.90;;
62362;SDS011;48396;48.426;1.500;2023-04-15T14:36:06;6.78;;;2.92;;
62362;SDS011;48396;48.426;1.500;2023-04-15T14:38:33;4.80;;;2.95;;
62362;SDS011;48396;48.426;1.500;2023-04-15T14:41:04;6.00;;;3.03;;
62362;SDS011;48396;48.426;1.500;2023-04-15T14:43:30;6.80;;;3.10;;
62362;SDS011;48396;48.426;1.500;2023-04-15T14:45:57;4.35;;;3.00;;
62362;SDS011;48396;48.426;1.500;2023-04-15T14:48:22;8.20;;;3.20;;
62362;SDS011;48396;48.426;1.500;2023-04-15T14:50:48;7.38;;;3.00;;
62362;SDS011;48396;48.426;1.500;2023-04-15T14:53:13;6.47;;;3.55;;
62362;SDS011;48396;48.426;1.500;2023-04-15T14:55:39;5.95;;;3.35;;
62362;SDS011;48396;48.426;1.500;2023-04-15T14:58:05;5.57;;;2.92;;
62362;SDS011;48396;48.426;1.500;2023-04-15T15:00:33;4.97;;;3.33;;
62362;SDS011;48396;48.426;1.500;2023-04-15T15:02:59;4.85;;;3.00;;
62362;SDS011;48396;48.426;1.500;2023-04-15T15:05:25;5.32;;;3.05;;